Time;durP1;ratioP1;P1;durP2;ratioP2;P2;SDS_P1;SDS_P2;PMS_P1;PMS_P2;Temp;Humidity;BMP_temperature;BMP_pressure;BME280_temperature;BME280_humidity;BME280_pressure;Samples;Min_cycle;Max_cycle;Signal;HPM_P1;HPM_P2
2022/10/02 00:01:55;;;;;;;7.95;1.60;;;10.60;77.40;;;;;;4053110;29;20621;-81
2022/10/02 00:04:38;;;;;;;13.45;2.00;;;10.60;77.50;;;;;;4066634;29;20434;-81
2022/10/02 00:07:02;;;;;;;14.18;1.73;;;10.60;77.50;;;;;;4068643;29;20092;-82
2022/10/02 00:09:25;;;;;;;;;;;10.50;77.50;;;;;;4065052;29;20067;-82
2022/10/02 00:11:48;;;;;;;11.80;1.50;;;10.50;78.30;;;;;;4056961;29;19974;-81
2022/10/02 00:14:14;;;;;;;13.50;1.30;;;10.50;77.40;;;;;;4075816;29;20520;-81
2022/10/02 00:16:39;;;;;;;13.25;1.63;;;10.50;77.70;;;;;;4080084;28;20153;-82
2022/10/02 00:18:58;;;;;;;17.20;1.90;;;10.50;77.80;;;;;;4131810;28;20460;-82
2022/10/02 00:22:03;;;;;;;17.17;1.60;;;10.50;77.80;;;;;;4129806;28;21863;-81
2022/10/02 00:24:27;;;;;;;8.27;1.42;;;10.50;78.00;;;;;;4105098;28;20106;-81
2022/10/02 00:26:55;;;;;;;11.50;1.70;;;10.60;78.00;;;;;;4127122;28;20836;-82
2022/10/02 00:29:23;;;;;;;13.50;1.60;;;10.50;78.20;;;;;;4115226;28;20495;-81
2022/10/02 00:32:09;;;;;;;9.13;1.25;;;10.50;78.00;;;;;;4126906;28;20037;-82
2022/10/02 00:34:50;;;;;;;19.38;2.08;;;10.40;78.30;;;;;;4132065;28;20088;-82
2022/10/02 00:37:21;;;;;;;12.63;1.67;;;10.40;78.20;;;;;;4114331;28;20046;-81
2022/10/02 00:40:22;;;;;;;19.20;1.67;;;10.50;78.40;;;;;;4129410;28;20129;-81
2022/10/02 00:42:53;;;;;;;13.35;1.60;;;10.50;78.70;;;;;;4111180;28;20045;-81
2022/10/02 00:45:30;;;;;;;9.25;1.95;;;10.40;78.30;;;;;;4127078;28;20045;-83
2022/10/02 00:48:08;;;;;;;10.45;1.55;;;10.40;78.50;;;;;;4127934;28;20038;-82
2022/10/02 00:50:43;;;;;;;12.40;1.70;;;10.40;78.60;;;;;;4114909;28;20120;-80
2022/10/02 00:53:33;;;;;;;13.13;1.98;;;10.50;78.60;;;;;;4124094;28;20045;-80
2022/10/02 00:56:08;;;;;;;17.42;1.77;;;10.50;78.80;;;;;;4125170;28;20045;-81
2022/10/02 00:58:30;;;;;;;;;;;10.50;79.10;;;;;;4128000;28;20146;-81
2022/10/02 01:01:06;;;;;;;10.60;1.50;;;10.50;79.50;;;;;;4128577;28;19939;-82
2022/10/02 01:03:31;;;;;;;11.30;1.45;;;10.50;78.60;;;;;;4132560;28;20057;-82
2022/10/02 01:05:51;;;;;;;16.63;2.00;;;10.60;79.40;;;;;;4132118;28;20173;-81
2022/10/02 01:08:14;;;;;;;16.92;1.80;;;10.50;78.60;;;;;;4133401;28;20052;-82
2022/10/02 01:10:37;;;;;;;17.17;1.70;;;10.50;78.70;;;;;;4131592;28;20045;-81
2022/10/02 01:12:57;;;;;;;18.70;1.92;;;10.50;78.70;;;;;;4131808;28;20066;-81
2022/10/02 01:15:21;;;;;;;22.23;2.00;;;10.50;78.60;;;;;;4132482;28;20329;-82
2022/10/02 01:17:40;;;;;;;17.00;1.80;;;10.50;78.60;;;;;;4130835;28;20072;-80
2022/10/02 01:20:05;;;;;;;17.40;1.65;;;10.40;78.60;;;;;;4131291;28;20069;-81
2022/10/02 01:22:34;;;;;;;12.00;1.60;;;10.40;78.50;;;;;;4130847;28;20052;-81
2022/10/02 01:24:58;;;;;;;9.93;1.33;;;10.40;78.70;;;;;;4134113;28;20064;-81
2022/10/02 01:27:18;;;;;;;9.87;1.33;;;10.40;78.60;;;;;;4117940;28;20507;-81
2022/10/02 01:29:37;;;;;;;17.63;1.95;;;10.40;78.60;;;;;;4131716;28;20069;-81
2022/10/02 01:31:56;;;;;;;8.50;1.90;;;10.40;78.60;;;;;;4132583;28;20061;-82
2022/10/02 01:34:16;;;;;;;12.57;1.40;;;10.40;78.80;;;;;;4133242;28;20034;-81
2022/10/02 01:36:35;;;;;;;16.02;1.90;;;10.40;78.70;;;;;;4128501;28;20574;-81
2022/10/02 01:38:56;;;;;;;15.40;1.83;;;10.40;78.80;;;;;;4129155;28;20038;-82
2022/10/02 01:41:15;;;;;;;23.60;1.85;;;10.50;79.00;;;;;;4129678;28;20045;-82
2022/10/02 01:43:38;;;;;;;10.05;1.58;;;10.30;78.70;;;;;;4129921;28;20045;-82
2022/10/02 01:46:28;;;;;;;22.17;2.20;;;10.30;78.90;;;;;;4118098;28;20184;-82
2022/10/02 01:49:07;;;;;;;11.25;1.42;;;10.30;79.10;;;;;;4126514;28;20093;-81
2022/10/02 01:51:59;;;;;;;13.63;1.45;;;10.30;79.00;;;;;;4126893;28;20100;-81
2022/10/02 01:54:18;;;;;;;14.30;1.63;;;10.30;79.10;;;;;;4115362;28;20034;-82
2022/10/02 01:56:50;;;;;;;19.88;2.00;;;10.30;79.00;;;;;;4117204;28;20142;-82
2022/10/02 01:59:28;;;;;;;17.67;1.63;;;10.40;79.20;;;;;;4129750;28;20046;-81
2022/10/02 02:02:01;;;;;;;11.27;1.27;;;10.30;79.00;;;;;;4114877;28;20065;-80
2022/10/02 02:04:35;;;;;;;11.98;1.50;;;10.40;79.20;;;;;;4131084;28;20045;-81
2022/10/02 02:07:05;;;;;;;15.40;1.40;;;10.20;78.90;;;;;;4130064;28;20040;-80
2022/10/02 02:09:43;;;;;;;15.15;1.50;;;10.20;78.90;;;;;;4132526;28;20110;-80
2022/10/02 02:12:08;;;;;;;17.98;1.83;;;10.20;79.00;;;;;;4129937;28;20036;-82
2022/10/02 02:14:35;;;;;;;18.38;2.22;;;10.20;79.10;;;;;;4115158;28;20559;-82
2022/10/02 02:17:13;;;;;;;16.73;1.65;;;10.20;79.00;;;;;;4128153;28;20048;-82
2022/10/02 02:19:37;;;;;;;11.45;1.90;;;10.30;79.20;;;;;;4131092;28;20065;-81
2022/10/02 02:22:02;;;;;;;9.15;2.10;;;10.10;79.10;;;;;;4112191;28;20145;-81
2022/10/02 02:24:35;;;;;;;13.38;1.92;;;10.10;79.10;;;;;;4112973;28;20057;-82
2022/10/02 02:26:59;;;;;;;9.43;1.15;;;10.10;79.10;;;;;;4128124;28;20033;-81
2022/10/02 02:29:21;;;;;;;15.35;1.80;;;10.10;79.10;;;;;;4131299;28;20033;-82
2022/10/02 02:31:49;;;;;;;10.32;1.42;;;10.10;79.20;;;;;;4115657;28;20042;-82
2022/10/02 02:34:17;;;;;;;12.35;1.83;;;10.10;79.40;;;;;;4128857;28;20057;-82
2022/10/02 02:36:40;;;;;;;24.48;2.00;;;10.00;79.30;;;;;;4115466;28;20157;-82
2022/10/02 02:39:03;;;;;;;16.88;1.73;;;10.10;79.30;;;;;;4133243;28;20093;-81
2022/10/02 02:41:27;;;;;;;17.60;1.60;;;10.00;79.30;;;;;;4131606;28;20535;-81
2022/10/02 02:43:59;;;;;;;12.70;1.17;;;10.00;79.30;;;;;;4125667;28;20812;-82
2022/10/02 02:46:25;;;;;;;13.35;1.50;;;10.00;79.30;;;;;;4114515;28;20053;-82
2022/10/02 02:48:54;;;;;;;9.82;1.38;;;10.10;79.40;;;;;;4116784;28;20041;-81
2022/10/02 02:51:27;;;;;;;9.75;1.15;;;10.00;79.30;;;;;;4129449;28;20046;-81
2022/10/02 02:53:56;;;;;;;10.60;1.23;;;10.00;79.20;;;;;;4115453;28;20042;-81
2022/10/02 02:56:18;;;;;;;14.50;1.40;;;10.00;79.30;;;;;;4132354;28;20045;-81
2022/10/02 02:58:41;;;;;;;8.43;1.30;;;10.00;79.30;;;;;;4118627;28;20037;-81
2022/10/02 03:01:00;;;;;;;9.70;0.90;;;10.10;79.30;;;;;;4116894;28;20081;-82
2022/10/02 03:03:19;;;;;;;12.25;1.23;;;9.90;79.10;;;;;;4133866;28;20164;-82
2022/10/02 03:05:47;;;;;;;9.05;1.10;;;9.90;79.10;;;;;;4132826;28;20053;-81
2022/10/02 03:08:22;;;;;;;10.07;1.30;;;9.90;79.10;;;;;;4131661;28;20138;-81
2022/10/02 03:11:20;;;;;;;9.77;1.70;;;9.90;79.00;;;;;;4132761;28;20088;-82
2022/10/02 03:14:21;;;;;;;8.77;1.15;;;9.90;80.10;;;;;;4066511;29;20921;-80
2022/10/02 03:16:56;;;;;;;15.88;1.55;;;9.90;79.40;;;;;;4065223;29;20179;-81
2022/10/02 03:19:30;;;;;;;15.35;1.52;;;9.80;79.20;;;;;;4122453;28;20050;-81
2022/10/02 03:22:06;;;;;;;9.73;1.60;;;10.00;79.50;;;;;;4134340;28;20048;-82
2022/10/02 03:24:28;;;;;;;12.80;1.40;;;9.90;79.60;;;;;;4116216;28;20038;-82
2022/10/02 03:26:53;;;;;;;11.27;1.30;;;9.80;79.60;;;;;;4130658;28;20511;-81
2022/10/02 03:29:23;;;;;;;11.68;1.85;;;9.80;79.70;;;;;;4136653;28;20165;-81
2022/10/02 03:31:43;;;;;;;14.68;2.15;;;9.90;80.00;;;;;;4145963;28;20076;-81
2022/10/02 03:34:04;;;;;;;18.45;1.65;;;9.90;80.00;;;;;;4130371;28;20058;-81
2022/10/02 03:36:24;;;;;;;9.57;1.48;;;9.90;80.10;;;;;;4119232;28;20054;-81
2022/10/02 03:38:44;;;;;;;10.93;1.20;;;9.90;80.10;;;;;;4134297;28;20045;-81
2022/10/02 03:41:03;;;;;;;12.63;1.92;;;9.90;80.20;;;;;;4132270;28;20069;-80
2022/10/02 03:43:25;;;;;;;13.60;1.50;;;9.90;80.20;;;;;;4134459;28;20416;-81
2022/10/02 03:45:45;;;;;;;13.73;1.55;;;10.00;80.40;;;;;;4116542;28;20166;-81
2022/10/02 03:48:05;;;;;;;16.05;1.50;;;9.90;80.30;;;;;;4115382;28;20680;-82
2022/10/02 03:50:26;;;;;;;16.08;1.88;;;10.00;80.50;;;;;;4130700;28;20034;-81
2022/10/02 03:52:49;;;;;;;11.40;1.50;;;10.00;80.50;;;;;;4129980;28;20035;-81
2022/10/02 03:55:31;;;;;;;13.95;1.23;;;10.20;80.70;;;;;;4132315;28;20102;-81
2022/10/02 03:57:53;;;;;;;7.68;1.45;;;10.10;80.90;;;;;;4131837;28;20125;-81
2022/10/02 04:00:19;;;;;;;10.73;1.40;;;10.10;80.70;;;;;;4130877;28;20053;-82
2022/10/02 04:02:48;;;;;;;14.57;2.20;;;10.10;81.50;;;;;;4133591;28;20041;-80
2022/10/02 04:05:24;;;;;;;11.75;1.55;;;10.10;80.80;;;;;;4130776;28;20038;-79
2022/10/02 04:07:48;;;;;;;8.50;1.25;;;10.10;80.60;;;;;;4126305;28;20538;-81
2022/10/02 04:10:12;;;;;;;;;;;10.10;80.60;;;;;;4133080;28;20038;-82
2022/10/02 04:12:39;;;;;;;9.07;1.27;;;10.20;81.20;;;;;;4132910;28;19925;-82
2022/10/02 04:15:07;;;;;;;16.95;1.92;;;10.30;80.30;;;;;;4129484;28;20161;-82
2022/10/02 04:17:37;;;;;;;17.27;1.80;;;10.20;80.30;;;;;;4132528;28;20113;-82
2022/10/02 04:20:02;;;;;;;9.57;1.67;;;10.20;80.30;;;;;;4133076;28;20101;-82
2022/10/02 04:22:41;;;;;;;11.57;1.48;;;10.20;81.00;;;;;;4123928;28;20048;-81
2022/10/02 04:25:15;;;;;;;15.98;1.40;;;10.10;80.20;;;;;;4134080;28;20041;-82
2022/10/02 04:27:39;;;;;;;14.27;1.48;;;10.10;80.10;;;;;;4130636;28;20053;-81
2022/10/02 04:30:00;;;;;;;;;;;10.10;80.20;;;;;;4132614;28;20053;-82
2022/10/02 04:32:28;;;;;;;12.70;1.35;;;10.10;81.10;;;;;;4130778;28;19916;-81
2022/10/02 04:34:47;;;;;;;13.55;2.28;;;10.10;80.20;;;;;;4131580;28;20041;-82
2022/10/02 04:37:34;;;;;;;12.82;1.55;;;10.10;80.10;;;;;;4129265;28;20069;-82
2022/10/02 04:40:10;;;;;;;17.33;1.48;;;10.10;80.30;;;;;;4133247;28;20049;-81
2022/10/02 04:42:55;;;;;;;17.63;1.52;;;10.10;80.20;;;;;;4140095;28;20107;-83
2022/10/02 04:45:30;;;;;;;;;;;10.10;80.20;;;;;;4135574;28;20033;-82
2022/10/02 04:48:30;;;;;;;8.20;1.05;;;10.10;81.00;;;;;;4132448;28;19975;-81
2022/10/02 04:51:18;;;;;;;13.30;1.05;;;10.10;80.20;;;;;;4133473;28;20057;-82
2022/10/02 04:54:12;;;;;;;14.05;1.50;;;10.10;80.20;;;;;;4133884;28;20073;-82
2022/10/02 04:57:03;;;;;;;13.40;1.60;;;10.10;81.00;;;;;;4133129;28;20041;-82
2022/10/02 04:59:39;;;;;;;11.73;1.42;;;10.00;80.20;;;;;;4133829;28;20114;-82
2022/10/02 05:02:34;;;;;;;14.02;1.50;;;10.00;80.30;;;;;;4131304;28;20032;-82
2022/10/02 05:05:25;;;;;;;8.48;1.05;;;10.00;80.30;;;;;;4132072;28;20050;-82
2022/10/02 05:08:01;;;;;;;10.80;1.42;;;10.00;80.40;;;;;;4112268;28;20094;-82
2022/10/02 05:10:49;;;;;;;12.13;1.42;;;10.00;80.20;;;;;;4133023;28;20126;-80
2022/10/02 05:13:29;;;;;;;13.50;1.52;;;10.00;80.30;;;;;;4115419;28;20077;-81
2022/10/02 05:16:33;;;;;;;9.98;1.13;;;10.00;80.20;;;;;;4130172;28;20037;-82
2022/10/02 05:19:19;;;;;;;12.15;1.60;;;10.00;80.40;;;;;;4092772;28;20149;-83
2022/10/02 05:21:57;;;;;;;9.77;1.60;;;10.00;80.30;;;;;;4130550;28;20062;-80
2022/10/02 05:25:06;;;;;;;10.90;1.52;;;10.00;80.50;;;;;;4133079;28;20041;-82
2022/10/02 05:27:40;;;;;;;9.60;1.35;;;10.00;81.00;;;;;;4131956;28;20403;-82
2022/10/02 05:30:13;;;;;;;11.13;1.70;;;10.00;80.80;;;;;;4133365;28;20411;-81
2022/10/02 05:33:06;;;;;;;19.17;1.60;;;10.10;81.10;;;;;;4128846;28;20038;-82
2022/10/02 05:35:57;;;;;;;10.93;1.42;;;10.10;82.00;;;;;;4130647;28;20073;-82
2022/10/02 05:38:32;;;;;;;17.13;1.20;;;10.10;81.40;;;;;;4122289;28;20550;-81
2022/10/02 05:41:13;;;;;;;7.88;1.17;;;10.10;81.00;;;;;;4108993;28;20041;-82
2022/10/02 05:43:46;;;;;;;16.58;1.80;;;10.10;81.10;;;;;;4115003;28;20070;-82
2022/10/02 05:46:15;;;;;;;15.27;1.70;;;10.10;80.90;;;;;;4124842;28;20549;-82
2022/10/02 05:48:43;;;;;;;7.30;1.00;;;10.10;80.90;;;;;;4139919;28;20044;-82
2022/10/02 05:51:09;;;;;;;6.97;1.40;;;10.20;81.10;;;;;;4115315;28;20582;-82
2022/10/02 05:53:40;;;;;;;10.25;1.10;;;10.20;81.00;;;;;;4130745;28;20792;-82
2022/10/02 05:56:08;;;;;;;9.80;1.05;;;10.20;81.00;;;;;;4128619;28;20048;-82
2022/10/02 05:58:52;;;;;;;12.40;1.73;;;10.20;80.90;;;;;;4134168;28;20400;-81
2022/10/02 06:01:29;;;;;;;8.07;1.20;;;10.20;80.80;;;;;;4126622;28;20125;-82
2022/10/02 06:03:57;;;;;;;18.23;1.58;;;10.20;80.80;;;;;;4113380;28;20041;-82
2022/10/02 06:06:51;;;;;;;8.45;1.40;;;10.20;80.70;;;;;;4144640;28;21254;-82
2022/10/02 06:09:27;;;;;;;12.18;1.48;;;10.20;80.70;;;;;;4125569;28;20038;-82
2022/10/02 06:11:55;;;;;;;14.48;1.90;;;10.20;80.90;;;;;;4110279;28;20873;-82
2022/10/02 06:14:31;;;;;;;17.67;1.67;;;10.30;81.00;;;;;;4113485;28;20038;-82
2022/10/02 06:16:59;;;;;;;12.40;1.63;;;10.30;81.10;;;;;;4114569;28;20038;-82
2022/10/02 06:19:28;;;;;;;14.75;1.30;;;10.30;81.10;;;;;;4129711;28;20042;-81
2022/10/02 06:21:54;;;;;;;10.95;1.15;;;10.40;81.30;;;;;;4130221;28;20143;-81
2022/10/02 06:24:24;;;;;;;24.15;1.55;;;10.40;81.20;;;;;;4129003;28;20065;-83
2022/10/02 06:26:50;;;;;;;12.85;2.30;;;10.50;81.30;;;;;;4112077;28;20045;-83
2022/10/02 06:29:52;;;;;;;19.38;2.00;;;10.40;81.40;;;;;;4133698;28;20073;-81
2022/10/02 06:32:14;;;;;;;12.73;1.55;;;10.50;81.50;;;;;;4055182;29;20585;-82
2022/10/02 06:34:34;;;;;;;12.65;1.88;;;10.50;81.60;;;;;;4122098;28;20030;-82
2022/10/02 06:37:17;;;;;;;16.80;1.50;;;10.60;81.80;;;;;;4130303;28;20045;-82
2022/10/02 06:39:44;;;;;;;15.65;1.35;;;10.60;81.80;;;;;;4120375;28;20106;-83
2022/10/02 06:42:34;;;;;;;16.15;2.55;;;10.60;82.40;;;;;;4130102;28;20068;-82
2022/10/02 06:45:09;;;;;;;14.57;1.67;;;10.70;81.70;;;;;;4120112;28;20045;-82
2022/10/02 06:47:52;;;;;;;12.60;1.60;;;10.70;81.70;;;;;;4118240;28;20046;-82
2022/10/02 06:50:29;;;;;;;12.73;1.85;;;10.90;81.70;;;;;;4132043;28;20053;-81
2022/10/02 06:53:42;;;;;;;13.30;1.42;;;10.80;81.50;;;;;;4130960;28;20041;-82
2022/10/02 06:56:14;;;;;;;11.02;1.98;;;10.80;81.50;;;;;;4082671;29;20054;-82
2022/10/02 06:58:46;;;;;;;17.77;1.90;;;10.90;81.40;;;;;;4122764;28;20037;-82
2022/10/02 07:01:25;;;;;;;20.50;2.20;;;10.90;81.40;;;;;;4129643;28;20061;-84
2022/10/02 07:04:03;;;;;;;10.13;1.63;;;11.00;81.40;;;;;;4137983;28;20045;-82
2022/10/02 07:06:43;;;;;;;12.75;1.92;;;10.90;81.20;;;;;;4133097;28;20179;-83
2022/10/02 07:09:24;;;;;;;11.98;1.73;;;10.90;81.20;;;;;;4133042;28;20101;-82
2022/10/02 07:11:57;;;;;;;15.35;1.95;;;11.00;81.10;;;;;;4130810;28;20157;-82
2022/10/02 07:14:29;;;;;;;9.48;1.45;;;11.00;81.00;;;;;;4130623;28;20081;-82
2022/10/02 07:17:13;;;;;;;13.80;1.48;;;11.00;80.90;;;;;;4144483;28;20644;-83
2022/10/02 07:19:47;;;;;;;17.15;1.98;;;11.00;80.90;;;;;;4132883;28;20085;-81
2022/10/02 07:22:26;;;;;;;15.23;1.77;;;11.10;81.00;;;;;;4115969;28;20037;-83
2022/10/02 07:25:18;;;;;;;12.23;1.60;;;11.10;81.00;;;;;;4128127;28;20041;-83
2022/10/02 07:28:01;;;;;;;10.85;1.75;;;11.10;81.00;;;;;;4113796;28;20081;-82
2022/10/02 07:30:21;;;;;;;11.13;1.70;;;11.20;81.10;;;;;;4129730;28;20077;-82
2022/10/02 07:32:47;;;;;;;11.77;1.55;;;11.20;81.00;;;;;;4117948;28;20061;-82
2022/10/02 07:35:37;;;;;;;9.93;1.63;;;11.30;81.00;;;;;;4131892;28;20049;-82
2022/10/02 07:38:08;;;;;;;9.43;1.63;;;11.30;81.00;;;;;;4134019;28;20037;-83
2022/10/02 07:40:54;;;;;;;13.32;1.15;;;11.30;80.90;;;;;;4124816;28;20073;-83
2022/10/02 07:43:26;;;;;;;8.05;1.13;;;11.40;80.70;;;;;;4132757;28;20088;-82
2022/10/02 07:45:55;;;;;;;9.77;1.33;;;11.50;80.80;;;;;;4131621;28;20069;-82
2022/10/02 07:48:43;;;;;;;11.50;1.30;;;11.50;80.50;;;;;;4129611;28;20040;-83
2022/10/02 07:51:46;;;;;;;20.67;2.22;;;11.50;80.50;;;;;;4125002;28;20052;-84
2022/10/02 07:54:44;;;;;;;15.30;1.48;;;11.60;80.30;;;;;;4112581;28;20129;-83
2022/10/02 07:57:36;;;;;;;19.17;1.70;;;11.70;80.30;;;;;;4128981;28;20045;-83
2022/10/02 08:00:16;;;;;;;11.55;2.08;;;11.80;80.10;;;;;;4129972;28;20068;-83
2022/10/02 08:02:56;;;;;;;17.58;1.60;;;11.80;80.00;;;;;;4129045;28;20041;-83
2022/10/02 08:05:23;;;;;;;18.70;1.88;;;11.90;79.90;;;;;;4126069;28;20048;-83
2022/10/02 08:07:49;;;;;;;12.40;1.95;;;12.00;79.80;;;;;;4125452;28;20132;-82
2022/10/02 08:10:11;;;;;;;13.45;1.67;;;12.00;79.70;;;;;;4126946;28;20068;-84
2022/10/02 08:12:42;;;;;;;14.30;1.95;;;12.20;79.60;;;;;;4107861;28;20034;-84
2022/10/02 08:15:04;;;;;;;25.23;2.65;;;12.30;79.70;;;;;;4125621;28;20400;-84
2022/10/02 08:17:32;;;;;;;13.70;1.90;;;12.30;79.50;;;;;;4124338;28;20052;-82
2022/10/02 08:19:54;;;;;;;18.80;1.95;;;12.50;79.50;;;;;;4112864;28;20087;-83
2022/10/02 08:22:35;;;;;;;18.75;2.33;;;12.40;79.30;;;;;;4120408;28;20128;-83
2022/10/02 08:24:57;;;;;;;18.95;2.00;;;12.60;79.20;;;;;;4113152;28;20094;-83
2022/10/02 08:27:28;;;;;;;12.52;1.77;;;12.70;79.00;;;;;;4127562;28;20566;-83
2022/10/02 08:30:05;;;;;;;20.88;2.97;;;12.70;78.70;;;;;;4111705;28;20614;-83
2022/10/02 08:32:30;;;;;;;21.15;2.03;;;12.70;78.30;;;;;;4127521;28;20032;-82
2022/10/02 08:34:49;;;;;;;10.70;1.70;;;12.80;78.40;;;;;;4120497;28;20053;-83
2022/10/02 08:37:35;;;;;;;15.65;2.10;;;12.80;78.30;;;;;;4126544;28;20527;-83
2022/10/02 08:40:32;;;;;;;13.18;1.58;;;12.90;77.80;;;;;;4122415;28;20036;-83
2022/10/02 08:43:57;;;;;;;18.50;2.22;;;13.00;77.70;;;;;;4126531;28;20073;-83
2022/10/02 08:46:43;;;;;;;12.20;1.83;;;13.10;76.90;;;;;;4119718;28;20057;-83
2022/10/02 08:49:14;;;;;;;15.38;2.10;;;13.20;76.60;;;;;;4127902;28;20049;-82
2022/10/02 08:52:02;;;;;;;14.15;1.95;;;13.30;76.20;;;;;;4103152;28;20062;-83
2022/10/02 08:54:56;;;;;;;12.85;2.38;;;13.30;75.90;;;;;;4119946;28;20124;-84
2022/10/02 08:57:51;;;;;;;16.75;2.10;;;13.40;75.80;;;;;;4124882;28;20037;-83
2022/10/02 09:00:21;;;;;;;15.55;2.33;;;13.50;75.70;;;;;;4130925;28;20567;-83
2022/10/02 09:03:05;;;;;;;15.50;2.15;;;13.50;75.40;;;;;;4126462;28;20044;-82
2022/10/02 09:06:02;;;;;;;16.40;1.88;;;13.60;75.00;;;;;;4113501;28;20144;-84
2022/10/02 09:08:57;;;;;;;16.92;1.80;;;13.70;74.70;;;;;;4130736;28;20037;-85
2022/10/02 09:11:54;;;;;;;20.53;1.93;;;13.80;75.50;;;;;;4145145;28;20096;-83
2022/10/02 09:14:19;;;;;;;14.27;2.17;;;13.90;74.40;;;;;;4134411;28;20364;-82
2022/10/02 09:17:05;;;;;;;13.43;2.30;;;13.90;73.90;;;;;;4133766;28;20073;-82
2022/10/02 09:20:02;;;;;;;12.35;2.13;;;14.00;73.10;;;;;;4120719;28;20061;-83
2022/10/02 09:22:59;;;;;;;13.48;2.28;;;14.00;72.80;;;;;;4135744;28;20099;-83
2022/10/02 09:25:28;;;;;;;17.58;2.35;;;14.10;72.70;;;;;;4132166;28;20045;-82
2022/10/02 09:28:25;;;;;;;14.25;2.20;;;14.20;72.20;;;;;;4133204;28;20046;-83
2022/10/02 09:31:18;;;;;;;19.48;3.53;;;14.20;72.00;;;;;;4135622;28;20041;-82
2022/10/02 09:34:10;;;;;;;20.15;2.25;;;14.30;71.20;;;;;;4133167;28;20069;-81
2022/10/02 09:37:09;;;;;;;14.30;1.65;;;14.40;71.50;;;;;;4131084;28;20042;-82
2022/10/02 09:39:59;;;;;;;20.90;2.28;;;14.40;71.80;;;;;;4117192;28;20158;-82
2022/10/02 09:42:53;;;;;;;15.80;2.42;;;14.40;71.70;;;;;;4130908;28;20029;-84
2022/10/02 09:45:24;;;;;;;15.00;2.40;;;14.50;71.30;;;;;;4128077;28;20045;-83
2022/10/02 09:48:03;;;;;;;12.30;2.20;;;14.50;71.00;;;;;;4134263;28;20098;-82
2022/10/02 09:50:48;;;;;;;12.27;1.85;;;14.50;71.10;;;;;;4130211;28;20037;-83
2022/10/02 09:53:46;;;;;;;13.45;2.40;;;14.60;70.50;;;;;;4128374;28;20050;-85
2022/10/02 09:56:23;;;;;;;17.60;2.28;;;14.60;70.50;;;;;;4122652;28;20128;-83
2022/10/02 09:59:11;;;;;;;14.32;2.15;;;14.70;71.00;;;;;;4144334;28;20060;-82
2022/10/02 10:01:54;;;;;;;19.00;2.28;;;14.80;70.00;;;;;;4123412;28;20065;-82
2022/10/02 10:04:45;;;;;;;14.40;2.22;;;14.80;69.20;;;;;;4125979;28;20668;-82
2022/10/02 10:07:35;;;;;;;13.50;2.38;;;14.90;68.20;;;;;;4122658;28;20077;-82
2022/10/02 10:10:31;;;;;;;19.52;1.95;;;14.90;67.50;;;;;;4121999;28;20226;-82
2022/10/02 10:13:21;;;;;;;12.95;2.10;;;15.00;67.70;;;;;;4122634;28;20037;-83
2022/10/02 10:16:00;;;;;;;13.98;1.90;;;15.10;68.00;;;;;;4125257;28;20117;-82
2022/10/02 10:18:25;;;;;;;13.52;2.00;;;15.20;67.90;;;;;;4105226;28;20499;-83
2022/10/02 10:21:15;;;;;;;9.07;2.05;;;15.20;66.30;;;;;;4111712;28;20085;-83
2022/10/02 10:23:54;;;;;;;13.20;2.15;;;15.30;66.00;;;;;;4110320;28;20600;-82
2022/10/02 10:26:37;;;;;;;14.35;1.95;;;15.50;66.30;;;;;;4123216;28;20535;-82
2022/10/02 10:29:14;;;;;;;12.70;1.70;;;15.60;65.20;;;;;;4125023;28;20057;-82
2022/10/02 10:32:11;;;;;;;13.77;1.92;;;15.60;64.50;;;;;;4123731;28;20053;-83
2022/10/02 10:35:01;;;;;;;12.63;1.80;;;15.60;63.40;;;;;;4125730;28;20095;-82
2022/10/02 10:40:24;;;;;;;7.97;1.63;;;15.50;63.40;;;;;;4122777;28;20037;-84
2022/10/02 10:43:11;;;;;;;12.80;1.25;;;15.40;63.70;;;;;;4122232;28;20570;-84
2022/10/02 10:45:54;;;;;;;11.93;1.88;;;15.30;64.20;;;;;;4134659;28;20144;-84
2022/10/02 10:48:39;;;;;;;9.30;1.90;;;15.20;64.80;;;;;;4123180;28;20136;-83
2022/10/02 10:51:15;;;;;;;;;;;14.90;65.30;;;;;;4123267;28;20040;-84
2022/10/02 10:54:10;;;;;;;13.82;1.80;;;14.90;65.80;;;;;;4115301;28;20441;-83
2022/10/02 10:56:42;;;;;;;19.92;2.53;;;14.70;66.60;;;;;;4109889;28;20111;-83
2022/10/02 10:59:23;;;;;;;17.40;2.38;;;14.70;67.80;;;;;;4124079;28;20804;-83
2022/10/02 11:02:13;;;;;;;16.83;2.20;;;14.50;68.60;;;;;;4127772;28;20045;-82
2022/10/02 11:05:15;;;;;;;20.25;2.67;;;14.50;69.20;;;;;;4115521;28;20041;-81
2022/10/02 11:07:43;;;;;;;18.58;2.28;;;14.40;69.30;;;;;;4115087;28;20045;-82
2022/10/02 11:10:26;;;;;;;15.60;1.85;;;14.30;69.30;;;;;;4123379;28;20118;-82
2022/10/02 11:13:20;;;;;;;14.30;1.90;;;14.30;69.40;;;;;;4104752;28;20045;-82
2022/10/02 11:16:12;;;;;;;19.13;3.05;;;14.30;69.10;;;;;;4102502;28;20107;-79
2022/10/02 11:18:43;;;;;;;16.67;2.20;;;14.20;69.00;;;;;;4124764;28;20550;-83
2022/10/02 11:21:50;;;;;;;16.10;2.33;;;14.20;69.20;;;;;;4120933;28;20061;-83
2022/10/02 11:24:26;;;;;;;15.95;2.15;;;14.10;69.60;;;;;;4129040;28;20116;-84
2022/10/02 11:27:04;;;;;;;21.98;2.75;;;14.00;69.80;;;;;;4127448;28;20038;-84
2022/10/02 11:29:36;;;;;;;16.95;2.25;;;14.10;70.10;;;;;;4124694;28;20073;-85
2022/10/02 11:32:15;;;;;;;15.65;2.60;;;14.10;70.40;;;;;;4123951;28;20424;-83
2022/10/02 11:35:12;;;;;;;20.52;2.60;;;13.90;70.50;;;;;;4125868;28;20033;-84
2022/10/02 11:37:37;;;;;;;17.92;2.53;;;13.90;70.80;;;;;;4127653;28;20037;-84
2022/10/02 11:40:19;;;;;;;14.15;2.28;;;14.00;71.00;;;;;;4127396;28;20037;-84
2022/10/02 11:43:14;;;;;;;20.58;2.67;;;13.90;71.60;;;;;;4120610;28;20049;-84
2022/10/02 11:45:46;;;;;;;15.43;2.53;;;13.90;72.00;;;;;;4106839;28;20685;-84
2022/10/02 11:48:24;;;;;;;13.45;2.58;;;13.90;72.20;;;;;;4125460;28;20397;-84
2022/10/02 11:51:17;;;;;;;11.68;2.03;;;13.90;72.30;;;;;;4127282;28;20041;-85
2022/10/02 11:53:49;;;;;;;22.40;2.65;;;13.80;72.70;;;;;;4125280;28;20049;-84
2022/10/02 11:56:09;;;;;;;18.70;2.28;;;14.00;72.80;;;;;;4126269;28;20146;-85
2022/10/02 11:59:02;;;;;;;15.02;2.15;;;14.00;72.50;;;;;;4126759;28;20427;-84
2022/10/02 12:01:34;;;;;;;18.25;2.85;;;14.20;72.50;;;;;;4127051;28;20049;-84
2022/10/02 12:04:26;;;;;;;18.90;2.60;;;14.10;72.10;;;;;;4129267;28;20088;-84
2022/10/02 12:07:04;;;;;;;14.05;2.13;;;14.00;72.10;;;;;;4114375;28;20045;-84
2022/10/02 12:09:40;;;;;;;16.67;1.83;;;14.10;72.10;;;;;;4129209;28;20527;-84
2022/10/02 12:12:19;;;;;;;22.88;2.45;;;14.20;71.70;;;;;;4124440;28;20052;-82
2022/10/02 12:14:38;;;;;;;10.07;1.80;;;14.20;71.40;;;;;;4127786;28;20058;-84
2022/10/02 12:17:31;;;;;;;18.05;2.05;;;14.20;71.00;;;;;;4124399;28;20044;-83
2022/10/02 12:29:14;;;;;;;16.25;2.35;;;14.30;71.30;;;;;;4128047;28;20045;-83
2022/10/02 12:32:12;;;;;;;14.70;1.90;;;14.30;71.70;;;;;;4114175;28;20050;-83
2022/10/02 12:35:04;;;;;;;15.32;2.33;;;14.30;71.40;;;;;;4079545;29;20713;-83
2022/10/02 12:37:51;;;;;;;20.95;2.75;;;14.40;71.80;;;;;;4131032;28;20441;-83
2022/10/02 12:40:34;;;;;;;20.63;2.70;;;14.50;71.90;;;;;;4130621;28;20041;-83
2022/10/02 12:43:09;;;;;;;14.98;2.35;;;14.50;72.00;;;;;;4131652;28;20045;-83
2022/10/02 12:45:47;;;;;;;10.60;1.98;;;14.60;71.30;;;;;;4128340;28;20037;-84
2022/10/02 12:48:57;;;;;;;18.85;2.35;;;14.70;70.60;;;;;;4114295;28;20042;-83
2022/10/02 12:51:25;;;;;;;12.07;2.10;;;14.80;70.40;;;;;;4122064;28;20125;-84
2022/10/02 12:54:19;;;;;;;13.27;2.08;;;14.80;68.00;;;;;;4131725;28;20049;-84
2022/10/02 12:57:10;;;;;;;12.95;1.90;;;14.80;67.00;;;;;;4127596;28;20487;-83
2022/10/02 12:59:40;;;;;;;18.35;2.38;;;14.90;66.60;;;;;;4122390;28;20130;-84
2022/10/02 13:02:14;;;;;;;12.52;1.40;;;14.90;66.50;;;;;;4126275;28;20065;-84
2022/10/02 13:04:48;;;;;;;11.13;1.45;;;14.90;66.20;;;;;;4125581;28;20049;-85
2022/10/02 13:07:25;;;;;;;14.85;2.60;;;15.00;66.00;;;;;;4126038;28;20109;-83
2022/10/02 13:10:11;;;;;;;16.80;1.95;;;15.00;65.90;;;;;;4125199;28;20045;-83
2022/10/02 13:13:08;;;;;;;17.35;2.67;;;15.00;65.50;;;;;;4127602;28;20400;-84
2022/10/02 13:15:37;;;;;;;16.73;2.10;;;15.00;64.90;;;;;;4121825;28;20037;-82
2022/10/02 13:18:19;;;;;;;12.40;1.95;;;15.20;64.80;;;;;;4126564;28;20048;-83
2022/10/02 13:20:52;;;;;;;18.23;2.08;;;15.10;64.80;;;;;;4118101;28;20045;-83
2022/10/02 13:23:34;;;;;;;17.00;2.03;;;15.10;64.60;;;;;;4130005;28;20046;-86
2022/10/02 13:26:20;;;;;;;13.90;2.05;;;15.20;64.90;;;;;;4129466;28;20098;-83
2022/10/02 13:28:51;;;;;;;18.27;2.15;;;15.20;64.30;;;;;;4141819;28;20049;-85
2022/10/02 13:31:35;;;;;;;19.17;1.88;;;15.20;64.70;;;;;;4138315;28;20045;-83
2022/10/02 13:34:43;;;;;;;19.57;2.20;;;15.30;64.40;;;;;;4116340;28;20046;-84
2022/10/02 13:37:45;;;;;;;16.77;2.30;;;15.30;64.50;;;;;;4080821;29;20054;-84
2022/10/02 13:40:27;;;;;;;12.88;1.80;;;15.20;64.20;;;;;;4078753;29;20058;-84
2022/10/02 13:43:15;;;;;;;11.98;1.67;;;15.20;63.50;;;;;;4129251;28;20169;-85